sensor_id;sensor_type;location;lat;lon;timestamp;pressure;altitude;pressure_sealevel;temperature;humidity
50484;BME280;36409;52.168;20.878;2023-03-04T00:01:45;100211.44;;;-0.54;76.94
50484;BME280;36409;52.168;20.878;2023-03-04T00:04:19;100210.63;;;-0.53;77.54
50484;BME280;36409;52.168;20.878;2023-03-04T00:06:51;100202.08;;;-0.53;77.06
50484;BME280;36409;52.168;20.878;2023-03-04T00:09:24;100198.69;;;-0.52;76.93
50484;BME280;36409;52.168;20.878;2023-03-04T00:11:56;100191.02;;;-0.51;76.67
50484;BME280;36409;52.168;20.878;2023-03-04T00:14:29;100188.45;;;-0.51;76.56
50484;BME280;36409;52.168;20.878;2023-03-04T00:17:01;100181.68;;;-0.49;77.26
50484;BME280;36409;52.168;20.878;2023-03-04T00:19:34;100176.55;;;-0.49;77.21
50484;BME280;36409;52.168;20.878;2023-03-04T00:22:09;100185.10;;;-0.48;76.70
50484;BME280;36409;52.168;20.878;2023-03-04T00:24:43;100183.42;;;-0.48;76.49
50484;BME280;36409;52.168;20.878;2023-03-04T00:27:16;100180.80;;;-0.49;76.95
50484;BME280;36409;52.168;20.878;2023-03-04T00:29:48;100175.66;;;-0.49;77.30
50484;BME280;36409;52.168;20.878;2023-03-04T00:32:21;100175.73;;;-0.48;76.96
50484;BME280;36409;52.168;20.878;2023-03-04T00:34:53;100165.47;;;-0.48;76.83
50484;BME280;36409;52.168;20.878;2023-03-04T00:37:26;100167.15;;;-0.48;77.55
50484;BME280;36409;52.168;20.878;2023-03-04T00:39:59;100145.81;;;-0.47;77.56
50484;BME280;36409;52.168;20.878;2023-03-04T00:42:33;100145.81;;;-0.47;77.19
50484;BME280;36409;52.168;20.878;2023-03-04T00:45:15;100150.94;;;-0.47;77.15
50484;BME280;36409;52.168;20.878;2023-03-04T00:47:49;100143.24;;;-0.47;77.18
50484;BME280;36409;52.168;20.878;2023-03-04T00:50:21;100142.39;;;-0.48;76.61
50484;BME280;36409;52.168;20.878;2023-03-04T00:52:54;100139.83;;;-0.48;76.60
50484;BME280;36409;52.168;20.878;2023-03-04T00:55:27;100129.56;;;-0.48;76.91
50484;BME280;36409;52.168;20.878;2023-03-04T00:57:59;100129.56;;;-0.48;76.53
50484;BME280;36409;52.168;20.878;2023-03-04T01:00:32;100125.30;;;-0.47;77.03
50484;BME280;36409;52.168;20.878;2023-03-04T01:03:07;100130.42;;;-0.47;77.00
50484;BME280;36409;52.168;20.878;2023-03-04T01:05:44;100122.79;;;-0.45;77.45
50484;BME280;36409;52.168;20.878;2023-03-04T01:08:19;100116.77;;;-0.46;77.44
50484;BME280;36409;52.168;20.878;2023-03-04T01:10:52;100119.34;;;-0.46;76.82
50484;BME280;36409;52.168;20.878;2023-03-04T01:13:27;100109.97;;;-0.45;76.97
50484;BME280;36409;52.168;20.878;2023-03-04T01:16:02;100121.08;;;-0.45;76.86
50484;BME280;36409;52.168;20.878;2023-03-04T01:18:40;100099.73;;;-0.44;76.56
50484;BME280;36409;52.168;20.878;2023-03-04T01:21:14;100093.72;;;-0.44;76.52
50484;BME280;36409;52.168;20.878;2023-03-04T01:23:47;100090.27;;;-0.47;76.57
50484;BME280;36409;52.168;20.878;2023-03-04T01:26:19;100095.41;;;-0.47;76.80
50484;BME280;36409;52.168;20.878;2023-03-04T01:28:52;100086.88;;;-0.45;77.26
50484;BME280;36409;52.168;20.878;2023-03-04T01:31:25;100086.80;;;-0.49;77.24
50484;BME280;36409;52.168;20.878;2023-03-04T01:33:58;100068.84;;;-0.49;76.52
50484;BME280;36409;52.168;20.878;2023-03-04T01:36:31;100073.91;;;-0.50;77.39
50484;BME280;36409;52.168;20.878;2023-03-04T01:39:04;100057.67;;;-0.51;76.94
50484;BME280;36409;52.168;20.878;2023-03-04T01:41:38;100032.88;;;-0.50;77.12
50484;BME280;36409;52.168;20.878;2023-03-04T01:44:14;100008.03;;;-0.53;77.68
50484;BME280;36409;52.168;20.878;2023-03-04T01:46:50;100006.30;;;-0.54;77.20
50484;BME280;36409;52.168;20.878;2023-03-04T01:49:24;100007.09;;;-0.56;76.72
50484;BME280;36409;52.168;20.878;2023-03-04T01:51:56;100002.77;;;-0.59;77.54
50484;BME280;36409;52.168;20.878;2023-03-04T01:54:29;99993.34;;;-0.60;77.33
50484;BME280;36409;52.168;20.878;2023-03-04T01:57:16;99981.34;;;-0.61;76.48
50484;BME280;36409;52.168;20.878;2023-03-04T02:00:19;99986.38;;;-0.64;77.32
50484;BME280;36409;52.168;20.878;2023-03-04T02:02:54;99978.69;;;-0.64;77.04
50484;BME280;36409;52.168;20.878;2023-03-04T02:05:30;99978.69;;;-0.64;76.91
50484;BME280;36409;52.168;20.878;2023-03-04T02:08:04;99968.50;;;-0.63;77.42
50484;BME280;36409;52.168;20.878;2023-03-04T02:10:42;99970.17;;;-0.63;76.76
50484;BME280;36409;52.168;20.878;2023-03-04T02:13:16;99939.44;;;-0.62;76.70
50484;BME280;36409;52.168;20.878;2023-03-04T02:15:53;99920.64;;;-0.62;77.53
50484;BME280;36409;52.168;20.878;2023-03-04T02:18:25;99924.03;;;-0.63;76.78
50484;BME280;36409;52.168;20.878;2023-03-04T02:21:04;99932.61;;;-0.63;76.92
50484;BME280;36409;52.168;20.878;2023-03-04T02:23:45;99927.50;;;-0.61;76.66
50484;BME280;36409;52.168;20.878;2023-03-04T02:26:22;99929.27;;;-0.58;77.40
50484;BME280;36409;52.168;20.878;2023-03-04T02:28:57;99928.44;;;-0.57;76.71
50484;BME280;36409;52.168;20.878;2023-03-04T02:31:33;99930.20;;;-0.55;76.78
50484;BME280;36409;52.168;20.878;2023-03-04T02:34:13;99934.50;;;-0.54;77.40
50484;BME280;36409;52.168;20.878;2023-03-04T02:36:48;99931.99;;;-0.52;76.71
50484;BME280;36409;52.168;20.878;2023-03-04T02:39:29;99947.42;;;-0.49;77.39
50484;BME280;36409;52.168;20.878;2023-03-04T02:42:04;99936.41;;;-0.47;77.12
50484;BME280;36409;52.168;20.878;2023-03-04T02:44:39;99939.84;;;-0.44;76.73
50484;BME280;36409;52.168;20.878;2023-03-04T02:47:18;99934.77;;;-0.43;77.27
50484;BME280;36409;52.168;20.878;2023-03-04T02:49:53;99945.05;;;-0.41;77.09
50484;BME280;36409;52.168;20.878;2023-03-04T02:52:26;99945.11;;;-0.40;76.76
50484;BME280;36409;52.168;20.878;2023-03-04T02:55:00;99940.83;;;-0.39;77.07
50484;BME280;36409;52.168;20.878;2023-03-04T02:57:36;99939.20;;;-0.36;76.82
50484;BME280;36409;52.168;20.878;2023-03-04T03:00:12;99940.94;;;-0.35;76.98
50484;BME280;36409;52.168;20.878;2023-03-04T03:02:46;99949.54;;;-0.33;76.73
50484;BME280;36409;52.168;20.878;2023-03-04T03:05:19;99941.92;;;-0.29;76.97
50484;BME280;36409;52.168;20.878;2023-03-04T03:07:53;99934.25;;;-0.28;76.96
50484;BME280;36409;52.168;20.878;2023-03-04T03:10:26;99930.03;;;-0.26;77.10
50484;BME280;36409;52.168;20.878;2023-03-04T03:12:59;99926.64;;;-0.25;76.78
50484;BME280;36409;52.168;20.878;2023-03-04T03:15:32;99931.79;;;-0.23;77.02
50484;BME280;36409;52.168;20.878;2023-03-04T03:18:06;99923.27;;;-0.22;77.68
50484;BME280;36409;52.168;20.878;2023-03-04T03:20:39;99923.28;;;-0.21;77.45
50484;BME280;36409;52.168;20.878;2023-03-04T03:23:14;99925.91;;;-0.19;77.15
50484;BME280;36409;52.168;20.878;2023-03-04T03:25:52;99923.36;;;-0.18;76.99
50484;BME280;36409;52.168;20.878;2023-03-04T03:28:26;99925.95;;;-0.16;77.07
50484;BME280;36409;52.168;20.878;2023-03-04T03:30:59;99920.88;;;-0.14;77.71
50484;BME280;36409;52.168;20.878;2023-03-04T03:33:32;99920.07;;;-0.12;77.06
50484;BME280;36409;52.168;20.878;2023-03-04T03:36:10;99908.98;;;-0.11;77.17
50484;BME280;36409;52.168;20.878;2023-03-04T03:38:43;99910.73;;;-0.08;77.21
50484;BME280;36409;52.168;20.878;2023-03-04T03:41:15;99918.48;;;-0.07;77.72
50484;BME280;36409;52.168;20.878;2023-03-04T03:43:52;99909.09;;;-0.05;77.18
50484;BME280;36409;52.168;20.878;2023-03-04T03:46:26;99906.53;;;-0.05;77.81
50484;BME280;36409;52.168;20.878;2023-03-04T03:49:00;99898.00;;;-0.04;77.67
50484;BME280;36409;52.168;20.878;2023-03-04T03:51:32;99897.17;;;-0.03;77.37
50484;BME280;36409;52.168;20.878;2023-03-04T03:54:05;99888.64;;;-0.02;77.62
50484;BME280;36409;52.168;20.878;2023-03-04T03:56:38;99892.11;;;0.01;77.62
50484;BME280;36409;52.168;20.878;2023-03-04T03:59:10;99890.39;;;0.01;77.10
50484;BME280;36409;52.168;20.878;2023-03-04T04:01:43;99888.73;;;0.03;76.92
50484;BME280;36409;52.168;20.878;2023-03-04T04:04:16;99895.60;;;0.04;77.17
50484;BME280;36409;52.168;20.878;2023-03-04T04:06:50;99892.22;;;0.07;77.32
50484;BME280;36409;52.168;20.878;2023-03-04T04:09:23;99897.41;;;0.08;77.90
50484;BME280;36409;52.168;20.878;2023-03-04T04:11:57;99881.13;;;0.08;77.20
50484;BME280;36409;52.168;20.878;2023-03-04T04:14:29;99898.31;;;0.10;77.19
50484;BME280;36409;52.168;20.878;2023-03-04T04:17:02;99880.34;;;0.10;77.22
50484;BME280;36409;52.168;20.878;2023-03-04T04:19:37;99882.93;;;0.12;77.61
50484;BME280;36409;52.168;20.878;2023-03-04T04:22:13;99878.70;;;0.14;77.42
50484;BME280;36409;52.168;20.878;2023-03-04T04:24:46;99884.69;;;0.14;77.72
50484;BME280;36409;52.168;20.878;2023-03-04T04:27:22;99883.00;;;0.15;77.53
50484;BME280;36409;52.168;20.878;2023-03-04T04:29:54;99879.61;;;0.16;77.45
50484;BME280;36409;52.168;20.878;2023-03-04T04:32:27;99874.47;;;0.16;77.76
50484;BME280;36409;52.168;20.878;2023-03-04T04:35:00;99880.48;;;0.18;77.79
50484;BME280;36409;52.168;20.878;2023-03-04T04:37:37;99877.08;;;0.19;76.96
50484;BME280;36409;52.168;20.878;2023-03-04T04:40:12;99874.56;;;0.21;77.52
50484;BME280;36409;52.168;20.878;2023-03-04T04:42:44;99869.42;;;0.21;77.77
50484;BME280;36409;52.168;20.878;2023-03-04T04:45:17;99877.16;;;0.24;77.36
50484;BME280;36409;52.168;20.878;2023-03-04T04:47:55;99871.20;;;0.25;77.07
50484;BME280;36409;52.168;20.878;2023-03-04T04:50:33;99872.08;;;0.25;77.68
50484;BME280;36409;52.168;20.878;2023-03-04T04:53:06;99859.27;;;0.27;77.87
50484;BME280;36409;52.168;20.878;2023-03-04T04:55:44;99866.13;;;0.28;77.02
50484;BME280;36409;52.168;20.878;2023-03-04T04:58:19;99861.00;;;0.28;77.46
50484;BME280;36409;52.168;20.878;2023-03-04T05:00:57;99866.98;;;0.28;77.26
50484;BME280;36409;52.168;20.878;2023-03-04T05:03:35;99861.06;;;0.31;77.42
50484;BME280;36409;52.168;20.878;2023-03-04T05:06:11;99861.92;;;0.32;77.61
50484;BME280;36409;52.168;20.878;2023-03-04T05:08:44;99861.92;;;0.32;77.10
50484;BME280;36409;52.168;20.878;2023-03-04T05:11:17;99866.22;;;0.33;77.50
50484;BME280;36409;52.168;20.878;2023-03-04T05:13:50;99861.08;;;0.33;78.04
50484;BME280;36409;52.168;20.878;2023-03-04T05:16:23;99856.83;;;0.33;77.06
50484;BME280;36409;52.168;20.878;2023-03-04T05:19:03;99853.40;;;0.34;77.79
50484;BME280;36409;52.168;20.878;2023-03-04T05:21:38;99853.45;;;0.36;77.44
50484;BME280;36409;52.168;20.878;2023-03-04T05:24:11;99850.05;;;0.37;77.01
50484;BME280;36409;52.168;20.878;2023-03-04T05:26:44;99841.52;;;0.38;77.80
50484;BME280;36409;52.168;20.878;2023-03-04T05:29:17;99848.37;;;0.39;76.97
50484;BME280;36409;52.168;20.878;2023-03-04T05:31:50;99832.97;;;0.39;77.91
50484;BME280;36409;52.168;20.878;2023-03-04T05:34:24;99840.69;;;0.40;77.41
50484;BME280;36409;52.168;20.878;2023-03-04T05:36:57;99843.27;;;0.40;77.52
50484;BME280;36409;52.168;20.878;2023-03-04T05:39:36;99834.67;;;0.40;77.97
50484;BME280;36409;52.168;20.878;2023-03-04T05:42:11;99845.00;;;0.41;77.01
50484;BME280;36409;52.168;20.878;2023-03-04T05:44:44;99845.84;;;0.42;76.67
50484;BME280;36409;52.168;20.878;2023-03-04T05:47:16;99840.71;;;0.42;77.49
50484;BME280;36409;52.168;20.878;2023-03-04T05:49:50;99844.16;;;0.42;77.54
50484;BME280;36409;52.168;20.878;2023-03-04T05:52:24;99839.88;;;0.43;77.00
50484;BME280;36409;52.168;20.878;2023-03-04T05:55:05;99838.19;;;0.43;76.78
50484;BME280;36409;52.168;20.878;2023-03-04T05:57:41;99831.34;;;0.44;77.05
50484;BME280;36409;52.168;20.878;2023-03-04T06:02:51;99834.79;;;0.44;77.81
50484;BME280;36409;52.168;20.878;2023-03-04T06:05:24;99829.66;;;0.44;76.62
50484;BME280;36409;52.168;20.878;2023-03-04T06:08:01;99829.66;;;0.44;76.74
50484;BME280;36409;52.168;20.878;2023-03-04T06:10:37;99833.92;;;0.45;77.60
50484;BME280;36409;52.168;20.878;2023-03-04T06:13:17;99827.94;;;0.45;76.65
50484;BME280;36409;52.168;20.878;2023-03-04T06:15:56;99827.95;;;0.46;77.38
50484;BME280;36409;52.168;20.878;2023-03-04T06:18:34;99827.95;;;0.46;77.69
50484;BME280;36409;52.168;20.878;2023-03-04T06:21:10;99819.41;;;0.48;76.87
50484;BME280;36409;52.168;20.878;2023-03-04T06:23:42;99818.58;;;0.49;77.53
50484;BME280;36409;52.168;20.878;2023-03-04T06:26:17;99822.88;;;0.50;76.92
50484;BME280;36409;52.168;20.878;2023-03-04T06:28:52;99814.34;;;0.51;77.34
50484;BME280;36409;52.168;20.878;2023-03-04T06:31:29;99805.80;;;0.52;77.84
50484;BME280;36409;52.168;20.878;2023-03-04T06:34:10;99814.36;;;0.52;76.70
50484;BME280;36409;52.168;20.878;2023-03-04T06:36:43;99819.55;;;0.54;76.91
50484;BME280;36409;52.168;20.878;2023-03-04T06:39:19;99817.82;;;0.54;77.70
50484;BME280;36409;52.168;20.878;2023-03-04T06:41:52;99821.29;;;0.56;77.78
50484;BME280;36409;52.168;20.878;2023-03-04T06:44:25;99807.61;;;0.57;77.79
50484;BME280;36409;52.168;20.878;2023-03-04T06:46:59;99810.18;;;0.57;77.14
50484;BME280;36409;52.168;20.878;2023-03-04T06:49:50;99810.20;;;0.59;76.73
50484;BME280;36409;52.168;20.878;2023-03-04T06:52:25;99816.22;;;0.59;76.85
50484;BME280;36409;52.168;20.878;2023-03-04T06:54:58;99821.35;;;0.59;76.64
50484;BME280;36409;52.168;20.878;2023-03-04T06:57:38;99810.24;;;0.60;77.76
50484;BME280;36409;52.168;20.878;2023-03-04T07:00:16;99821.38;;;0.63;77.69
50484;BME280;36409;52.168;20.878;2023-03-04T07:02:49;99826.52;;;0.63;77.10
50484;BME280;36409;52.168;20.878;2023-03-04T07:05:25;99819.70;;;0.63;77.73
50484;BME280;36409;52.168;20.878;2023-03-04T07:07:58;99814.58;;;0.65;76.62
50484;BME280;36409;52.168;20.878;2023-03-04T07:10:38;99824.06;;;0.67;77.52
50484;BME280;36409;52.168;20.878;2023-03-04T07:13:12;99814.64;;;0.68;77.44
50484;BME280;36409;52.168;20.878;2023-03-04T07:15:45;99818.10;;;0.70;77.62
50484;BME280;36409;52.168;20.878;2023-03-04T07:18:19;99819.02;;;0.73;76.94
50484;BME280;36409;52.168;20.878;2023-03-04T07:20:54;99810.47;;;0.74;77.26
50484;BME280;36409;52.168;20.878;2023-03-04T07:23:27;99807.91;;;0.76;76.76
50484;BME280;36409;52.168;20.878;2023-03-04T07:26:00;99812.22;;;0.77;77.69
50484;BME280;36409;52.168;20.878;2023-03-04T07:28:40;99809.71;;;0.80;77.76
50484;BME280;36409;52.168;20.878;2023-03-04T07:31:21;99814.02;;;0.83;76.82
50484;BME280;36409;52.168;20.878;2023-03-04T07:33:56;99809.78;;;0.85;77.55
50484;BME280;36409;52.168;20.878;2023-03-04T07:36:30;99805.53;;;0.87;76.60
50484;BME280;36409;52.168;20.878;2023-03-04T07:39:09;99803.86;;;0.89;76.65
50484;BME280;36409;52.168;20.878;2023-03-04T07:41:45;99796.17;;;0.90;76.77
50484;BME280;36409;52.168;20.878;2023-03-04T07:44:18;99801.36;;;0.94;76.79
50484;BME280;36409;52.168;20.878;2023-03-04T07:46:51;99789.42;;;0.97;77.67
50484;BME280;36409;52.168;20.878;2023-03-04T07:49:25;99792.00;;;0.99;76.55
50484;BME280;36409;52.168;20.878;2023-03-04T07:51:57;99790.33;;;1.01;77.45
50484;BME280;36409;52.168;20.878;2023-03-04T07:54:30;99792.07;;;1.03;77.47
50484;BME280;36409;52.168;20.878;2023-03-04T07:57:02;99782.67;;;1.04;77.22
50484;BME280;36409;52.168;20.878;2023-03-04T07:59:41;99785.25;;;1.05;77.20
50484;BME280;36409;52.168;20.878;2023-03-04T08:02:15;99784.41;;;1.06;76.45
50484;BME280;36409;52.168;20.878;2023-03-04T08:04:52;99783.58;;;1.07;76.51
50484;BME280;36409;52.168;20.878;2023-03-04T08:07:24;99785.31;;;1.08;77.50
50484;BME280;36409;52.168;20.878;2023-03-04T08:09:57;99780.22;;;1.12;77.24
50484;BME280;36409;52.168;20.878;2023-03-04T08:12:29;99778.52;;;1.14;77.46
50484;BME280;36409;52.168;20.878;2023-03-04T08:15:05;99774.25;;;1.14;76.62
50484;BME280;36409;52.168;20.878;2023-03-04T08:17:42;99781.98;;;1.16;77.33
50484;BME280;36409;52.168;20.878;2023-03-04T08:20:14;99769.96;;;1.15;76.93
50484;BME280;36409;52.168;20.878;2023-03-04T08:22:47;99766.55;;;1.16;77.34
50484;BME280;36409;52.168;20.878;2023-03-04T08:25:19;99767.44;;;1.18;76.77
50484;BME280;36409;52.168;20.878;2023-03-04T08:27:52;99766.59;;;1.17;77.30
50484;BME280;36409;52.168;20.878;2023-03-04T08:30:24;99772.59;;;1.19;76.94
50484;BME280;36409;52.168;20.878;2023-03-04T08:32:57;99776.06;;;1.21;77.21
50484;BME280;36409;52.168;20.878;2023-03-04T08:35:30;99770.09;;;1.24;77.14
50484;BME280;36409;52.168;20.878;2023-03-04T08:38:04;99768.41;;;1.26;76.89
50484;BME280;36409;52.168;20.878;2023-03-04T08:40:42;99766.72;;;1.27;77.07
50484;BME280;36409;52.168;20.878;2023-03-04T08:43:15;99763.30;;;1.28;77.17
50484;BME280;36409;52.168;20.878;2023-03-04T08:45:47;99759.02;;;1.28;77.17
50484;BME280;36409;52.168;20.878;2023-03-04T08:48:21;99761.58;;;1.27;76.31
50484;BME280;36409;52.168;20.878;2023-03-04T08:50:55;99765.88;;;1.28;76.85
50484;BME280;36409;52.168;20.878;2023-03-04T08:53:28;99753.02;;;1.28;76.53
50484;BME280;36409;52.168;20.878;2023-03-04T08:56:03;99757.34;;;1.32;77.14
50484;BME280;36409;52.168;20.878;2023-03-04T08:58:37;99758.23;;;1.32;76.85
50484;BME280;36409;52.168;20.878;2023-03-04T09:01:12;99758.23;;;1.32;76.96
50484;BME280;36409;52.168;20.878;2023-03-04T09:03:48;99756.55;;;1.34;76.71
50484;BME280;36409;52.168;20.878;2023-03-04T09:06:21;99747.95;;;1.35;76.44
50484;BME280;36409;52.168;20.878;2023-03-04T09:08:53;99748.84;;;1.36;76.67
50484;BME280;36409;52.168;20.878;2023-03-04T09:11:26;99749.68;;;1.35;76.25
50484;BME280;36409;52.168;20.878;2023-03-04T09:13:58;99752.30;;;1.38;76.10
50484;BME280;36409;52.168;20.878;2023-03-04T09:16:31;99747.17;;;1.41;76.06
50484;BME280;36409;52.168;20.878;2023-03-04T09:19:04;99741.23;;;1.44;76.98
50484;BME280;36409;52.168;20.878;2023-03-04T09:21:38;99739.56;;;1.49;76.04
50484;BME280;36409;52.168;20.878;2023-03-04T09:24:12;99726.80;;;1.57;76.17
50484;BME280;36409;52.168;20.878;2023-03-04T09:26:48;99723.48;;;1.65;76.00
50484;BME280;36409;52.168;20.878;2023-03-04T09:29:21;99723.59;;;1.75;76.43
50484;BME280;36409;52.168;20.878;2023-03-04T09:31:54;99708.23;;;1.82;76.89
50484;BME280;36409;52.168;20.878;2023-03-04T09:34:29;99713.44;;;1.89;76.63
50484;BME280;36409;52.168;20.878;2023-03-04T09:37:03;99709.22;;;1.94;76.02
50484;BME280;36409;52.168;20.878;2023-03-04T09:39:37;99706.69;;;2.00;76.35
50484;BME280;36409;52.168;20.878;2023-03-04T09:42:16;99710.15;;;2.02;76.57
50484;BME280;36409;52.168;20.878;2023-03-04T09:44:57;99704.11;;;2.00;76.71
50484;BME280;36409;52.168;20.878;2023-03-04T09:47:34;99710.98;;;1.99;75.90
50484;BME280;36409;52.168;20.878;2023-03-04T09:50:12;99710.98;;;1.99;76.74
50484;BME280;36409;52.168;20.878;2023-03-04T09:52:57;99697.28;;;2.02;76.59
50484;BME280;36409;52.168;20.878;2023-03-04T09:55:38;99696.47;;;2.08;75.71
50484;BME280;36409;52.168;20.878;2023-03-04T09:58:24;99687.06;;;2.10;76.04
50484;BME280;36409;52.168;20.878;2023-03-04T10:01:06;99693.09;;;2.15;75.81
50484;BME280;36409;52.168;20.878;2023-03-04T10:03:45;99681.14;;;2.22;76.13
50484;BME280;36409;52.168;20.878;2023-03-04T10:06:22;99684.59;;;2.24;76.65
50484;BME280;36409;52.168;20.878;2023-03-04T10:08:57;99678.60;;;2.26;76.65
50484;BME280;36409;52.168;20.878;2023-03-04T10:11:35;99686.37;;;2.31;75.74
50484;BME280;36409;52.168;20.878;2023-03-04T10:14:29;99680.37;;;2.32;76.50
50484;BME280;36409;52.168;20.878;2023-03-04T10:17:11;99675.25;;;2.34;76.04
50484;BME280;36409;52.168;20.878;2023-03-04T10:19:58;99674.38;;;2.33;76.15
50484;BME280;36409;52.168;20.878;2023-03-04T10:22:40;99664.07;;;2.33;76.33
50484;BME280;36409;52.168;20.878;2023-03-04T10:25:19;99688.13;;;2.35;75.84
50484;BME280;36409;52.168;20.878;2023-03-04T10:27:55;99660.64;;;2.33;76.46
50484;BME280;36409;52.168;20.878;2023-03-04T10:30:38;99664.92;;;2.32;75.87
50484;BME280;36409;52.168;20.878;2023-03-04T10:33:16;99666.64;;;2.31;75.48
50484;BME280;36409;52.168;20.878;2023-03-04T10:35:52;99658.95;;;2.35;76.14
50484;BME280;36409;52.168;20.878;2023-03-04T10:38:31;99655.56;;;2.40;75.83
50484;BME280;36409;52.168;20.878;2023-03-04T10:41:12;99651.28;;;2.45;76.40
50484;BME280;36409;52.168;20.878;2023-03-04T10:43:50;99648.74;;;2.47;75.50
50484;BME280;36409;52.168;20.878;2023-03-04T10:46:36;99644.47;;;2.51;75.52
50484;BME280;36409;52.168;20.878;2023-03-04T10:49:11;99641.92;;;2.55;75.40
50484;BME280;36409;52.168;20.878;2023-03-04T10:51:47;99638.55;;;2.64;75.53
50484;BME280;36409;52.168;20.878;2023-03-04T10:54:26;99640.28;;;2.68;75.34
50484;BME280;36409;52.168;20.878;2023-03-04T10:57:01;99634.24;;;2.66;76.08
50484;BME280;36409;52.168;20.878;2023-03-04T10:59:45;99626.52;;;2.66;76.40
50484;BME280;36409;52.168;20.878;2023-03-04T11:02:26;99628.27;;;2.69;76.21
50484;BME280;36409;52.168;20.878;2023-03-04T11:05:14;99624.84;;;2.73;75.86
50484;BME280;36409;52.168;20.878;2023-03-04T11:07:50;99630.02;;;2.77;75.40
50484;BME280;36409;52.168;20.878;2023-03-04T11:10:29;99638.66;;;2.84;76.24
50484;BME280;36409;52.168;20.878;2023-03-04T11:13:07;99626.64;;;2.88;75.33
50484;BME280;36409;52.168;20.878;2023-03-04T11:15:51;99623.20;;;2.89;75.52
50484;BME280;36409;52.168;20.878;2023-03-04T11:18:33;99630.09;;;2.88;75.63
50484;BME280;36409;52.168;20.878;2023-03-04T11:21:14;99618.05;;;2.87;75.74
50484;BME280;36409;52.168;20.878;2023-03-04T11:23:51;99614.63;;;2.88;75.55
50484;BME280;36409;52.168;20.878;2023-03-04T11:26:29;99621.48;;;2.88;75.61
50484;BME280;36409;52.168;20.878;2023-03-04T11:29:10;99603.45;;;2.91;76.02
50484;BME280;36409;52.168;20.878;2023-03-04T11:31:49;99618.95;;;2.92;75.46
50484;BME280;36409;52.168;20.878;2023-03-04T11:34:30;99618.93;;;2.89;76.07
50484;BME280;36409;52.168;20.878;2023-03-04T11:37:13;99612.91;;;2.86;75.34
50484;BME280;36409;52.168;20.878;2023-03-04T11:39:51;99605.14;;;2.84;75.56
50484;BME280;36409;52.168;20.878;2023-03-04T11:42:30;99606.89;;;2.87;75.76
50484;BME280;36409;52.168;20.878;2023-03-04T11:45:12;99610.33;;;2.86;76.14
50484;BME280;36409;52.168;20.878;2023-03-04T11:48:05;99602.59;;;2.86;75.69
50484;BME280;36409;52.168;20.878;2023-03-04T11:50:54;99605.99;;;2.83;76.13
50484;BME280;36409;52.168;20.878;2023-03-04T11:53:36;99607.70;;;2.80;76.16
50484;BME280;36409;52.168;20.878;2023-03-04T11:56:25;99602.54;;;2.80;75.84
50484;BME280;36409;52.168;20.878;2023-03-04T11:59:25;99598.24;;;2.75;75.63
50484;BME280;36409;52.168;20.878;2023-03-04T12:02:12;99604.23;;;2.71;76.15
50484;BME280;36409;52.168;20.878;2023-03-04T12:05:00;99594.73;;;2.67;76.25
50484;BME280;36409;52.168;20.878;2023-03-04T12:08:13;99598.17;;;2.63;75.78
50484;BME280;36409;52.168;20.878;2023-03-04T12:10:57;99592.99;;;2.58;76.09
50484;BME280;36409;52.168;20.878;2023-03-04T12:16:32;99595.57;;;2.60;76.27
50484;BME280;36409;52.168;20.878;2023-03-04T12:19:20;99596.42;;;2.57;76.09
50484;BME280;36409;52.168;20.878;2023-03-04T12:22:05;99586.94;;;2.53;76.34
50484;BME280;36409;52.168;20.878;2023-03-04T12:27:56;99595.46;;;2.41;75.44
50484;BME280;36409;52.168;20.878;2023-03-04T12:30:39;99591.13;;;2.36;75.41
50484;BME280;36409;52.168;20.878;2023-03-04T12:33:31;99596.22;;;2.31;75.98
50484;BME280;36409;52.168;20.878;2023-03-04T12:36:15;99610.80;;;2.24;75.78
50484;BME280;36409;52.168;20.878;2023-03-04T12:39:07;99602.97;;;2.15;75.27
50484;BME280;36409;52.168;20.878;2023-03-04T12:41:55;99607.20;;;2.05;75.73
50484;BME280;36409;52.168;20.878;2023-03-04T12:44:34;99602.87;;;1.99;76.20
50484;BME280;36409;52.168;20.878;2023-03-04T12:47:31;99611.47;;;2.03;75.56
50484;BME280;36409;52.168;20.878;2023-03-04T12:50:25;99604.70;;;2.14;76.53
50484;BME280;36409;52.168;20.878;2023-03-04T12:53:10;99602.19;;;2.22;75.97
50484;BME280;36409;52.168;20.878;2023-03-04T12:55:59;99598.77;;;2.26;76.37
50484;BME280;36409;52.168;20.878;2023-03-04T12:58:36;99602.22;;;2.28;76.26
50484;BME280;36409;52.168;20.878;2023-03-04T13:01:17;99601.38;;;2.31;76.74
50484;BME280;36409;52.168;20.878;2023-03-04T13:03:59;99593.64;;;2.31;76.05
50484;BME280;36409;52.168;20.878;2023-03-04T13:06:41;99586.85;;;2.41;76.95
50484;BME280;36409;52.168;20.878;2023-03-04T13:09:25;99584.34;;;2.47;75.91
50484;BME280;36409;52.168;20.878;2023-03-04T13:12:15;99576.63;;;2.53;76.14
50484;BME280;36409;52.168;20.878;2023-03-04T13:15:27;99570.67;;;2.63;77.03
50484;BME280;36409;52.168;20.878;2023-03-04T13:18:03;99571.57;;;2.70;77.05
50484;BME280;36409;52.168;20.878;2023-03-04T13:20:39;99576.75;;;2.73;76.80
50484;BME280;36409;52.168;20.878;2023-03-04T13:23:27;99584.47;;;2.76;76.37
50484;BME280;36409;52.168;20.878;2023-03-04T13:26:32;99576.77;;;2.80;76.99
50484;BME280;36409;52.168;20.878;2023-03-04T13:32:03;99576.81;;;2.86;76.89
50484;BME280;36409;52.168;20.878;2023-03-04T13:34:51;99578.55;;;2.93;76.60
50484;BME280;36409;52.168;20.878;2023-03-04T13:37:30;99585.47;;;3.02;76.35
50484;BME280;36409;52.168;20.878;2023-03-04T13:40:33;99573.48;;;3.13;76.79
50484;BME280;36409;52.168;20.878;2023-03-04T13:43:32;99576.11;;;3.26;76.79
50484;BME280;36409;52.168;20.878;2023-03-04T13:46:41;99573.53;;;3.30;76.29
50484;BME280;36409;52.168;20.878;2023-03-04T13:49:21;99573.53;;;3.30;76.73
50484;BME280;36409;52.168;20.878;2023-03-04T13:51:55;99570.09;;;3.33;76.55
50484;BME280;36409;52.168;20.878;2023-03-04T13:54:30;99574.39;;;3.29;76.11
50484;BME280;36409;52.168;20.878;2023-03-04T13:57:18;99591.56;;;3.29;77.02
50484;BME280;36409;52.168;20.878;2023-03-04T13:59:55;99605.28;;;3.12;76.77